Time;durP1;ratioP1;P1;durP2;ratioP2;P2;SDS_P1;SDS_P2;PMS_P1;PMS_P2;Temp;Humidity;BMP_temperature;BMP_pressure;BME280_temperature;BME280_humidity;BME280_pressure;Samples;Min_cycle;Max_cycle;Signal;HPM_P1;HPM_P2
2023/04/30 00:02:07;;;;;;;;;;;;;;;16.35;46.01;100533.63;5019258;28;1533;-46
2023/04/30 00:04:32;;;;;;;;;;;;;;;17.24;46.76;100527.53;5018958;28;1023;-47
2023/04/30 00:06:58;;;;;;;;;;;;;;;16.77;47.69;100524.19;5029430;28;1905;-47
2023/04/30 00:09:23;;;;;;;;;;;;;;;18.47;46.12;100519.38;5020846;28;1098;-47
2023/04/30 00:11:49;;;;;;;;;;;;;;;17.95;47.45;100524.59;5019497;28;1075;-47
2023/04/30 00:14:14;;;;;;;;;;;;;;;17.17;48.01;100532.53;5018974;28;1118;-44
2023/04/30 00:16:40;;;;;;;;;;;;;;;16.84;47.28;100523.84;5019336;28;1087;-46
2023/04/30 00:19:05;;;;;;;;;;;;;;;16.72;46.66;100532.44;5023870;28;1024;-44
2023/04/30 00:21:31;;;;;;;;;;;;;;;16.58;46.85;100520.41;5019215;28;1096;-47
2023/04/30 00:23:59;;;;;;;;;;;;;;;17.28;47.80;100527.81;5018619;28;1087;-45
2023/04/30 00:26:25;;;;;;;;;;;;;;;16.76;47.38;100522.53;5018764;28;1934;-45
2023/04/30 00:28:50;;;;;;;;;;;;;;;16.91;47.66;100527.19;5018905;28;1039;-47
2023/04/30 00:31:16;;;;;;;;;;;;;;;17.12;47.88;100529.00;5030527;28;1115;-48
2023/04/30 00:33:41;;;;;;;;;;;;;;;16.77;47.21;100523.34;5020531;28;1007;-46
2023/04/30 00:36:07;;;;;;;;;;;;;;;18.33;46.52;100513.75;5020726;28;1139;-45
2023/04/30 00:38:32;;;;;;;;;;;;;;;17.19;47.82;100530.31;5018653;28;1067;-46
2023/04/30 00:40:58;;;;;;;;;;;;;;;16.83;47.38;100522.25;5018695;28;1064;-46
2023/04/30 00:43:24;;;;;;;;;;;;;;;16.83;47.46;100524.97;5024758;28;1170;-43
2023/04/30 00:45:49;;;;;;;;;;;;;;;17.12;48.18;100518.81;5018421;28;1894;-45
2023/04/30 00:48:15;;;;;;;;;;;;;;;16.72;47.70;100518.72;5018626;28;1167;-43
2023/04/30 00:50:40;;;;;;;;;;;;;;;16.57;46.77;100521.50;5018029;28;1075;-43
2023/04/30 00:53:06;;;;;;;;;;;;;;;16.51;46.31;100519.88;5018732;28;1090;-47
2023/04/30 00:55:31;;;;;;;;;;;;;;;16.52;46.43;100510.53;5018686;28;808;-47
2023/04/30 00:57:57;;;;;;;;;;;;;;;16.95;47.35;100516.44;5018374;28;1226;-46
2023/04/30 01:00:23;;;;;;;;;;;;;;;16.60;46.90;100523.69;5017075;28;1145;-48
2023/04/30 01:02:48;;;;;;;;;;;;;;;16.39;46.45;100518.25;5000643;28;1300;-43
2023/04/30 01:05:14;;;;;;;;;;;;;;;17.35;46.55;100521.97;5017238;28;1902;-45
2023/04/30 01:07:43;;;;;;;;;;;;;;;16.76;47.01;100522.53;5026089;28;1178;-46
2023/04/30 01:10:09;;;;;;;;;;;;;;;16.43;46.67;100518.53;5016581;28;1183;-46
2023/04/30 01:12:36;;;;;;;;;;;;;;;17.18;47.18;100516.84;5016649;28;1297;-45
2023/04/30 01:15:05;;;;;;;;;;;;;;;16.63;47.31;100519.56;5018272;28;1035;-47
2023/04/30 01:17:59;;;;;;;;;;;;;;;17.00;47.62;100516.41;5017764;28;1115;-45
2023/04/30 01:20:25;;;;;;;;;;;;;;;16.79;47.68;100512.06;4999673;28;1110;-44
2023/04/30 01:22:54;;;;;;;;;;;;;;;16.57;47.12;100513.28;5018407;28;1131;-46
2023/04/30 01:25:26;;;;;;;;;;;;;;;17.50;46.86;100512.81;5017862;28;1962;-47
2023/04/30 01:28:12;;;;;;;;;;;;;;;16.98;47.57;100512.31;5016390;28;1032;-43
2023/04/30 01:30:39;;;;;;;;;;;;;;;16.54;47.06;100508.34;5020675;28;1214;-46
2023/04/30 01:33:05;;;;;;;;;;;;;;;16.42;46.39;100511.38;5022618;28;1074;-48
2023/04/30 01:35:53;;;;;;;;;;;;;;;16.57;46.56;100502.28;5004341;28;1008;-47
2023/04/30 01:38:31;;;;;;;;;;;;;;;17.33;46.94;100507.69;5003432;28;1188;-44
2023/04/30 01:41:00;;;;;;;;;;;;;;;16.76;46.96;100500.56;5032832;28;1288;-47
2023/04/30 01:43:29;;;;;;;;;;;;;;;16.37;46.59;100508.69;5002251;28;1143;-44
2023/04/30 01:45:54;;;;;;;;;;;;;;;17.52;46.65;100497.66;5017937;28;1967;-46
2023/04/30 01:48:21;;;;;;;;;;;;;;;16.69;47.38;100502.78;5017317;28;1286;-46
2023/04/30 01:50:48;;;;;;;;;;;;;;;16.45;46.67;100501.78;5032300;28;1280;-45
2023/04/30 01:53:16;;;;;;;;;;;;;;;17.44;46.67;100499.09;5029284;28;1211;-46
2023/04/30 01:55:42;;;;;;;;;;;;;;;16.84;47.51;100501.06;5012662;28;1064;-46
2023/04/30 01:58:11;;;;;;;;;;;;;;;16.56;46.85;100495.16;5031984;28;1143;-45
2023/04/30 02:00:37;;;;;;;;;;;;;;;16.36;46.61;100491.38;4999571;28;1136;-46
2023/04/30 02:03:02;;;;;;;;;;;;;;;16.53;46.88;100501.22;5015472;28;2251;-42
2023/04/30 02:05:28;;;;;;;;;;;;;;;17.22;47.15;100501.44;5015563;28;1902;-47
2023/04/30 02:07:54;;;;;;;;;;;;;;;16.61;47.36;100503.38;5021243;28;1008;-45
2023/04/30 02:10:21;;;;;;;;;;;;;;;16.43;46.66;100494.63;5017012;28;1289;-44
2023/04/30 02:12:46;;;;;;;;;;;;;;;17.50;46.74;100501.81;5032094;28;1249;-48
2023/04/30 02:15:12;;;;;;;;;;;;;;;17.12;47.56;100496.03;5015817;28;1092;-44
2023/04/30 02:17:39;;;;;;;;;;;;;;;16.69;47.16;100493.72;5027329;28;1004;-47
2023/04/30 02:20:06;;;;;;;;;;;;;;;17.71;46.62;100496.97;5026013;28;1163;-45
2023/04/30 02:22:31;;;;;;;;;;;;;;;17.00;47.32;100497.19;5016499;28;1114;-45
2023/04/30 02:24:57;;;;;;;;;;;;;;;16.66;46.93;100486.91;5017357;28;1071;-45
2023/04/30 02:27:22;;;;;;;;;;;;;;;16.39;46.63;100482.56;5016699;28;1917;-45
2023/04/30 02:29:48;;;;;;;;;;;;;;;17.35;46.84;100484.31;5015683;28;1163;-48
2023/04/30 02:32:13;;;;;;;;;;;;;;;16.68;47.35;100481.94;5020927;28;877;-45
2023/04/30 02:34:39;;;;;;;;;;;;;;;16.46;46.77;100481.47;5016641;28;1028;-43
2023/04/30 02:37:05;;;;;;;;;;;;;;;16.54;46.78;100478.16;5019573;28;1209;-46
2023/04/30 02:39:31;;;;;;;;;;;;;;;16.94;47.19;100484.56;5005527;28;1139;-47
2023/04/30 02:41:56;;;;;;;;;;;;;;;16.51;47.14;100482.28;5016830;28;1048;-49
2023/04/30 02:44:22;;;;;;;;;;;;;;;16.42;46.13;100482.03;5027969;28;1098;-47
2023/04/30 02:46:47;;;;;;;;;;;;;;;17.18;46.82;100479.22;5016733;28;1909;-47
2023/04/30 02:49:13;;;;;;;;;;;;;;;16.52;47.01;100474.84;5016340;28;1146;-52
2023/04/30 02:51:39;;;;;;;;;;;;;;;16.38;46.42;100480.94;5034945;28;1059;-46
2023/04/30 02:54:04;;;;;;;;;;;;;;;17.67;46.25;100480.22;5016494;28;1080;-46
2023/04/30 02:56:30;;;;;;;;;;;;;;;16.67;47.23;100485.78;5022064;28;1226;-46
2023/04/30 02:58:55;;;;;;;;;;;;;;;16.38;47.00;100477.38;5016881;28;1051;-47
2023/04/30 03:01:21;;;;;;;;;;;;;;;17.44;46.74;100481.78;5015330;28;1124;-48
2023/04/30 03:03:46;;;;;;;;;;;;;;;17.22;47.46;100480.31;5015221;28;1459;-45
2023/04/30 03:06:11;;;;;;;;;;;;;;;16.69;47.18;100494.56;5015052;28;1914;-46
2023/04/30 03:08:37;;;;;;;;;;;;;;;18.01;46.14;100490.41;5015695;28;1234;-47
2023/04/30 03:11:02;;;;;;;;;;;;;;;16.97;47.55;100483.19;5016502;28;1100;-47
2023/04/30 03:13:28;;;;;;;;;;;;;;;16.65;46.88;100482.50;5049701;28;1154;-45
2023/04/30 03:15:58;;;;;;;;;;;;;;;17.61;46.82;100484.97;5019056;28;1379;-45
2023/04/30 03:18:23;;;;;;;;;;;;;;;16.77;47.63;100474.75;5019023;28;1225;-44
2023/04/30 03:20:49;;;;;;;;;;;;;;;16.53;46.71;100485.56;5027352;28;1218;-42
2023/04/30 03:23:14;;;;;;;;;;;;;;;16.39;46.37;100485.31;5020378;28;1166;-43
2023/04/30 03:25:40;;;;;;;;;;;;;;;17.60;46.62;100485.25;5020254;28;1890;-46
2023/04/30 03:28:05;;;;;;;;;;;;;;;16.65;47.70;100489.91;5020387;28;1104;-48
2023/04/30 03:30:31;;;;;;;;;;;;;;;16.53;47.15;100485.56;5018936;28;1171;-43
2023/04/30 03:32:56;;;;;;;;;;;;;;;17.03;47.24;100498.56;5021096;28;1450;-46
2023/04/30 03:35:22;;;;;;;;;;;;;;;16.55;46.97;100488.84;5019451;28;1047;-50
2023/04/30 03:37:47;;;;;;;;;;;;;;;17.15;47.10;100492.69;5023301;28;1233;-49
2023/04/30 03:40:13;;;;;;;;;;;;;;;17.13;47.07;100497.66;5019812;28;1071;-49
2023/04/30 03:42:38;;;;;;;;;;;;;;;16.68;47.10;100492.09;5020034;28;1143;-51
2023/04/30 03:45:04;;;;;;;;;;;;;;;16.56;47.22;100492.41;5027916;28;1110;-47
2023/04/30 03:47:30;;;;;;;;;;;;;;;17.03;47.44;100498.56;5019506;28;1985;-52
2023/04/30 03:49:55;;;;;;;;;;;;;;;16.63;47.24;100503.09;5019628;28;1059;-45
2023/04/30 03:52:21;;;;;;;;;;;;;;;16.45;46.42;100510.00;5018452;28;1139;-44
2023/04/30 03:54:48;;;;;;;;;;;;;;;17.31;46.85;100507.19;5018077;28;1219;-54
2023/04/30 03:57:14;;;;;;;;;;;;;;;16.64;47.03;100512.97;5020434;28;1183;-54
2023/04/30 03:59:40;;;;;;;;;;;;;;;18.06;46.01;100520.63;5018284;28;1132;-53
2023/04/30 04:02:06;;;;;;;;;;;;;;;17.31;47.19;100516.22;5019595;28;1051;-53
2023/04/30 04:04:32;;;;;;;;;;;;;;;16.77;47.20;100513.19;5018230;28;1250;-51
2023/04/30 04:06:58;;;;;;;;;;;;;;;16.58;46.58;100509.44;5017892;28;1969;-49
2023/04/30 04:09:23;;;;;;;;;;;;;;;16.68;47.03;100516.81;5019215;28;1052;-48
2023/04/30 04:11:49;;;;;;;;;;;;;;;17.36;47.08;100516.22;5019458;28;1040;-48
2023/04/30 04:14:15;;;;;;;;;;;;;;;16.76;47.52;100516.22;5017940;28;1207;-49
2023/04/30 04:16:41;;;;;;;;;;;;;;;16.51;46.81;100519.88;5018236;28;1227;-51
2023/04/30 04:19:07;;;;;;;;;;;;;;;16.41;46.03;100518.81;5017933;28;1301;-45
2023/04/30 04:21:33;;;;;;;;;;;;;;;17.36;46.62;100520.88;5020812;28;1208;-50
2023/04/30 04:24:07;;;;;;;;;;;;;;;16.57;47.08;100513.28;5017121;28;1632;-51
2023/04/30 04:26:34;;;;;;;;;;;;;;;16.38;46.67;100524.03;5017615;28;1898;-50
2023/04/30 04:28:59;;;;;;;;;;;;;;;16.74;46.96;100521.97;5019156;28;1032;-51
2023/04/30 04:31:25;;;;;;;;;;;;;;;16.80;47.46;100521.97;5017890;28;1329;-49
2023/04/30 04:33:56;;;;;;;;;;;;;;;16.45;46.95;100534.72;5030698;28;1203;-49
2023/04/30 04:36:22;;;;;;;;;;;;;;;17.06;46.82;100526.25;5022917;28;1234;-51
2023/04/30 04:38:48;;;;;;;;;;;;;;;16.73;47.45;100523.09;5018045;28;1246;-51
2023/04/30 04:41:14;;;;;;;;;;;;;;;17.97;46.18;100524.28;5019116;28;1227;-50
2023/04/30 04:43:39;;;;;;;;;;;;;;;18.40;45.96;100519.72;5017523;28;1199;-46
2023/04/30 04:46:07;;;;;;;;;;;;;;;17.14;48.18;100526.75;5021954;28;1955;-49
2023/04/30 04:48:33;;;;;;;;;;;;;;;16.86;47.61;100518.91;5025782;28;1078;-50
2023/04/30 04:50:59;;;;;;;;;;;;;;;16.60;47.11;100523.69;5023297;28;1357;-52
2023/04/30 04:53:25;;;;;;;;;;;;;;;17.31;47.75;100526.41;5017534;28;1163;-52
2023/04/30 04:55:51;;;;;;;;;;;;;;;16.73;47.85;100517.59;5017137;28;1079;-49
2023/04/30 04:58:16;;;;;;;;;;;;;;;17.73;47.38;100523.06;5027503;28;929;-45
2023/04/30 05:00:44;;;;;;;;;;;;;;;17.22;48.09;100526.16;5018450;28;1230;-50
2023/04/30 05:03:09;;;;;;;;;;;;;;;16.79;48.53;100520.31;5017149;28;1310;-48
2023/04/30 05:05:35;;;;;;;;;;;;;;;17.75;46.32;100526.38;5017029;28;1959;-50
2023/04/30 05:08:01;;;;;;;;;;;;;;;17.21;47.85;100532.78;5049914;28;1258;-50
2023/04/30 05:10:27;;;;;;;;;;;;;;;16.94;48.52;100531.25;5030772;28;1091;-52
2023/04/30 05:12:52;;;;;;;;;;;;;;;16.71;48.90;100527.22;5018524;28;1332;-51
2023/04/30 05:15:18;;;;;;;;;;;;;;;16.58;49.16;100534.13;5018206;28;1207;-50
2023/04/30 05:17:43;;;;;;;;;;;;;;;16.40;49.79;100539.13;5012849;28;1206;-49
2023/04/30 05:20:09;;;;;;;;;;;;;;;16.28;50.07;100535.03;4998702;28;1207;-49
2023/04/30 05:22:35;;;;;;;;;;;;;;;16.16;50.10;100529.81;5018694;28;1161;-52
2023/04/30 05:25:00;;;;;;;;;;;;;;;16.10;50.31;100530.94;5018121;28;1278;-52
2023/04/30 05:27:26;;;;;;;;;;;;;;;16.52;49.75;100543.47;5017912;28;1987;-51
2023/04/30 05:29:51;;;;;;;;;;;;;;;17.34;47.37;100534.91;5018012;28;1281;-53
2023/04/30 05:32:17;;;;;;;;;;;;;;;16.58;49.28;100539.63;5016678;28;1118;-54
2023/04/30 05:34:42;;;;;;;;;;;;;;;16.36;49.84;100543.50;5023022;28;1185;-52
2023/04/30 05:37:08;;;;;;;;;;;;;;;16.18;50.09;100544.09;5020076;28;1214;-53
2023/04/30 05:39:33;;;;;;;;;;;;;;;17.58;46.68;100539.69;5017431;28;1079;-50
2023/04/30 05:42:00;;;;;;;;;;;;;;;16.74;48.89;100541.19;5017966;28;1138;-52
2023/04/30 05:44:29;;;;;;;;;;;;;;;16.35;49.93;100544.59;5018142;28;1135;-53
2023/04/30 05:46:54;;;;;;;;;;;;;;;16.24;50.19;100543.81;5017126;28;1991;-52
2023/04/30 05:49:20;;;;;;;;;;;;;;;16.46;49.88;100550.09;5017528;28;1067;-51
2023/04/30 05:51:45;;;;;;;;;;;;;;;17.51;46.66;100542.75;5017297;28;1190;-53
2023/04/30 05:54:11;;;;;;;;;;;;;;;16.67;49.08;100540.69;5017675;28;1147;-52
2023/04/30 05:56:36;;;;;;;;;;;;;;;16.37;49.69;100539.69;5018716;28;1083;-54
2023/04/30 05:59:02;;;;;;;;;;;;;;;16.21;50.31;100535.31;5023099;28;1035;-55
2023/04/30 06:01:28;;;;;;;;;;;;;;;16.55;49.76;100543.75;5017330;28;1068;-50
2023/04/30 06:03:53;;;;;;;;;;;;;;;17.27;47.46;100545.38;5017067;28;1127;-54
2023/04/30 06:06:19;;;;;;;;;;;;;;;16.59;49.16;100544.84;5017483;28;1972;-51
2023/04/30 06:08:44;;;;;;;;;;;;;;;16.32;50.09;100536.94;5018594;28;997;-52
2023/04/30 06:11:10;;;;;;;;;;;;;;;16.70;49.26;100545.59;5016937;28;1107;-52
2023/04/30 06:13:36;;;;;;;;;;;;;;;17.38;47.21;100546.97;5016808;28;1138;-54
2023/04/30 06:16:01;;;;;;;;;;;;;;;16.67;49.00;100551.66;5017317;28;1210;-50
2023/04/30 06:18:27;;;;;;;;;;;;;;;16.43;49.67;100541.28;5017003;28;1139;-50
2023/04/30 06:20:52;;;;;;;;;;;;;;;16.20;50.54;100558.34;5019332;28;1135;-48
2023/04/30 06:23:18;;;;;;;;;;;;;;;16.45;49.87;100546.50;5023206;28;1074;-48
2023/04/30 06:25:43;;;;;;;;;;;;;;;17.43;47.33;100546.94;5016834;28;1906;-50
2023/04/30 06:28:09;;;;;;;;;;;;;;;16.64;49.31;100552.22;5017181;28;1060;-50
2023/04/30 06:30:35;;;;;;;;;;;;;;;16.44;49.81;100550.38;5016785;28;1114;-46
2023/04/30 06:33:01;;;;;;;;;;;;;;;16.17;50.57;100542.44;5017807;28;1139;-52
2023/04/30 06:35:26;;;;;;;;;;;;;;;16.16;50.57;100541.63;5017016;28;1257;-50
2023/04/30 06:37:52;;;;;;;;;;;;;;;17.59;46.91;100544.91;5019396;28;1194;-48
2023/04/30 06:40:17;;;;;;;;;;;;;;;16.76;48.91;100550.00;5016826;28;1059;-51
2023/04/30 06:42:43;;;;;;;;;;;;;;;16.39;50.22;100550.38;5016539;28;1197;-52
2023/04/30 06:45:09;;;;;;;;;;;;;;;16.18;50.55;100536.69;5019681;28;1166;-48
2023/04/30 06:47:36;;;;;;;;;;;;;;;16.03;50.79;100548.50;5016152;28;1902;-51
2023/04/30 06:50:02;;;;;;;;;;;;;;;16.77;49.17;100548.06;5016466;28;1144;-54
2023/04/30 06:52:27;;;;;;;;;;;;;;;17.35;47.41;100544.78;5016360;28;1106;-53
2023/04/30 06:54:53;;;;;;;;;;;;;;;16.64;49.35;100546.72;5016725;28;1169;-50
2023/04/30 06:57:18;;;;;;;;;;;;;;;16.30;50.27;100541.88;5019821;28;1052;-48
2023/04/30 06:59:44;;;;;;;;;;;;;;;16.15;50.50;100539.16;5016759;28;1119;-51
2023/04/30 07:02:09;;;;;;;;;;;;;;;17.27;48.07;100542.63;5016713;28;1100;-49
2023/04/30 07:04:35;;;;;;;;;;;;;;;17.07;48.03;100544.41;5016353;28;1143;-53
2023/04/30 07:07:01;;;;;;;;;;;;;;;16.56;49.53;100542.66;5016281;28;1906;-51
2023/04/30 07:09:27;;;;;;;;;;;;;;;16.33;50.19;100544.06;5020069;28;1238;-48
2023/04/30 07:11:53;;;;;;;;;;;;;;;16.57;49.93;100548.97;5022186;28;1324;-52
2023/04/30 07:14:18;;;;;;;;;;;;;;;17.49;47.31;100550.47;5016707;28;1289;-55
2023/04/30 07:16:44;;;;;;;;;;;;;;;16.75;49.08;100542.84;5016134;28;1195;-53
2023/04/30 07:19:09;;;;;;;;;;;;;;;16.42;49.87;100544.31;5016138;28;1095;-53
2023/04/30 07:21:35;;;;;;;;;;;;;;;16.28;50.48;100548.75;5018524;28;1116;-50
2023/04/30 07:24:00;;;;;;;;;;;;;;;16.11;50.64;100549.88;5027322;28;1174;-54
2023/04/30 07:26:26;;;;;;;;;;;;;;;16.63;49.82;100555.25;5015957;28;1981;-56
2023/04/30 07:28:51;;;;;;;;;;;;;;;17.48;47.29;100550.75;5015368;28;1096;-50
2023/04/30 07:31:18;;;;;;;;;;;;;;;16.63;49.31;100556.06;5015841;28;1131;-48
2023/04/30 07:33:43;;;;;;;;;;;;;;;16.31;50.34;100554.47;5017644;28;1166;-49
2023/04/30 07:36:10;;;;;;;;;;;;;;;16.46;50.13;100561.88;5016585;28;1089;-49
2023/04/30 07:38:35;;;;;;;;;;;;;;;17.68;47.08;100563.53;5020498;28;1206;-44
2023/04/30 07:41:02;;;;;;;;;;;;;;;16.81;48.88;100562.06;5016479;28;1115;-47
2023/04/30 07:43:28;;;;;;;;;;;;;;;16.43;49.94;100557.75;5015967;28;1258;-52
2023/04/30 07:45:53;;;;;;;;;;;;;;;16.25;50.38;100544.63;5021136;28;1982;-57
2023/04/30 07:48:20;;;;;;;;;;;;;;;16.62;49.70;100548.94;5020818;28;1129;-55
2023/04/30 07:50:48;;;;;;;;;;;;;;;17.36;47.74;100540.94;5016199;28;1210;-56
2023/04/30 07:53:14;;;;;;;;;;;;;;;16.63;49.66;100545.09;5016107;28;1153;-57
2023/04/30 07:55:40;;;;;;;;;;;;;;;16.33;50.19;100546.81;5015875;28;1111;-56
2023/04/30 07:58:05;;;;;;;;;;;;;;;16.16;50.73;100549.03;5019527;28;1134;-55
2023/04/30 08:00:31;;;;;;;;;;;;;;;16.95;48.89;100543.91;5024466;28;1142;-55
2023/04/30 08:02:57;;;;;;;;;;;;;;;17.18;48.20;100545.16;5019518;28;1070;-56
2023/04/30 08:05:22;;;;;;;;;;;;;;;16.54;49.90;100546.78;5019400;28;1039;-55
2023/04/30 08:07:48;;;;;;;;;;;;;;;16.30;50.50;100536.41;5019347;28;1894;-56
2023/04/30 08:10:13;;;;;;;;;;;;;;;16.16;50.64;100543.53;5025705;28;1162;-56
2023/04/30 08:12:39;;;;;;;;;;;;;;;17.03;48.55;100548.81;5006249;28;1194;-55
2023/04/30 08:15:05;;;;;;;;;;;;;;;17.03;48.46;100537.81;5005393;28;1195;-55
2023/04/30 08:17:31;;;;;;;;;;;;;;;16.50;50.04;100545.69;5019421;28;1031;-55
2023/04/30 08:19:56;;;;;;;;;;;;;;;16.23;50.33;100542.16;5019180;28;1178;-55
2023/04/30 08:22:22;;;;;;;;;;;;;;;16.30;50.51;100535.56;5018590;28;1047;-55
2023/04/30 08:24:47;;;;;;;;;;;;;;;17.58;47.12;100545.19;5006340;28;1222;-55
2023/04/30 08:27:13;;;;;;;;;;;;;;;16.74;49.03;100532.16;4999443;28;1996;-55
2023/04/30 08:29:39;;;;;;;;;;;;;;;16.40;50.18;100541.03;4999199;28;1196;-56
2023/04/30 08:32:04;;;;;;;;;;;;;;;16.71;49.38;100536.28;5005806;28;1164;-54
2023/04/30 08:34:30;;;;;;;;;;;;;;;17.23;47.72;100536.06;5012649;28;1266;-54
2023/04/30 08:36:56;;;;;;;;;;;;;;;16.59;49.59;100527.53;5022625;28;1250;-53
2023/04/30 08:39:21;;;;;;;;;;;;;;;16.28;50.26;100532.28;5018915;28;1074;-55
2023/04/30 08:41:50;;;;;;;;;;;;;;;16.84;48.98;100525.78;5003498;28;1290;-54
2023/04/30 08:44:15;;;;;;;;;;;;;;;17.06;48.38;100530.94;4999198;28;1514;-50
2023/04/30 08:46:42;;;;;;;;;;;;;;;16.49;49.90;100533.88;5039459;28;1980;-49
2023/04/30 08:49:07;;;;;;;;;;;;;;;16.23;50.29;100530.38;4997957;28;1342;-50
2023/04/30 08:51:34;;;;;;;;;;;;;;;16.17;50.55;100526.81;5012035;28;1216;-51
2023/04/30 08:53:59;;;;;;;;;;;;;;;17.44;47.71;100523.81;5009350;28;1127;-46
2023/04/30 08:56:25;;;;;;;;;;;;;;;16.92;48.85;100522.50;5018939;28;1234;-47
2023/04/30 08:58:50;;;;;;;;;;;;;;;16.49;49.72;100528.38;5026615;28;1170;-48
2023/04/30 09:01:16;;;;;;;;;;;;;;;16.29;50.49;100521.03;5019705;28;1130;-50
2023/04/30 09:03:41;;;;;;;;;;;;;;;17.58;47.38;100525.94;5018516;28;1060;-47
2023/04/30 09:06:07;;;;;;;;;;;;;;;16.91;48.96;100526.34;5016094;28;1984;-52
2023/04/30 09:08:42;;;;;;;;;;;;;;;16.52;49.79;100516.88;5018426;28;1056;-53
2023/04/30 09:11:20;;;;;;;;;;;;;;;16.30;50.32;100513.59;5021872;28;1064;-49
2023/04/30 09:13:46;;;;;;;;;;;;;;;16.11;50.89;100516.13;5017931;28;1123;-49
2023/04/30 09:16:12;;;;;;;;;;;;;;;16.04;51.07;100516.41;5017905;28;1205;-51
2023/04/30 09:18:38;;;;;;;;;;;;;;;17.52;47.44;100511.41;5017742;28;1079;-50
2023/04/30 09:21:07;;;;;;;;;;;;;;;16.81;49.09;100512.63;5018436;28;1070;-50
2023/04/30 09:23:32;;;;;;;;;;;;;;;16.42;50.13;100509.47;5028287;28;1178;-45
2023/04/30 09:25:58;;;;;;;;;;;;;;;16.25;50.61;100506.22;5006083;28;1898;-51
2023/04/30 09:28:25;;;;;;;;;;;;;;;16.10;51.07;100504.31;5015965;28;1024;-49
2023/04/30 09:30:51;;;;;;;;;;;;;;;16.92;48.88;100500.53;5017045;28;1032;-52
2023/04/30 09:33:16;;;;;;;;;;;;;;;17.28;47.93;100497.56;5017649;28;1059;-48
2023/04/30 09:35:42;;;;;;;;;;;;;;;16.62;49.56;100498.69;5019023;28;899;-49
2023/04/30 09:38:07;;;;;;;;;;;;;;;16.33;50.50;100491.13;5017832;28;1118;-52
2023/04/30 09:40:36;;;;;;;;;;;;;;;16.27;50.62;100492.22;5016590;28;1064;-51
2023/04/30 09:43:02;;;;;;;;;;;;;;;17.67;47.01;100491.22;5017629;28;1063;-52
2023/04/30 09:45:47;;;;;;;;;;;;;;;16.85;48.96;100481.56;5017353;28;1250;-49
2023/04/30 09:48:31;;;;;;;;;;;;;;;16.39;50.44;100484.50;5023062;28;976;-46
2023/04/30 09:50:57;;;;;;;;;;;;;;;16.22;50.77;100482.09;5017648;28;1174;-48
2023/04/30 09:53:23;;;;;;;;;;;;;;;16.41;50.45;100485.03;5017643;28;1079;-47
2023/04/30 09:55:48;;;;;;;;;;;;;;;17.60;47.36;100486.06;5017305;28;1154;-48
2023/04/30 09:58:15;;;;;;;;;;;;;;;16.72;49.40;100480.25;5017227;28;1496;-50
2023/04/30 10:00:41;;;;;;;;;;;;;;;16.43;50.46;100477.38;5019554;28;946;-49
2023/04/30 10:03:07;;;;;;;;;;;;;;;16.27;50.59;100484.00;5017478;28;1191;-48
2023/04/30 10:05:52;;;;;;;;;;;;;;;16.13;51.07;100483.75;5017243;28;1958;-50
2023/04/30 10:08:17;;;;;;;;;;;;;;;16.02;51.29;100481.03;5017022;28;1185;-50
2023/04/30 10:10:45;;;;;;;;;;;;;;;17.55;47.60;100479.78;5016841;28;1513;-50
2023/04/30 10:13:12;;;;;;;;;;;;;;;16.86;49.33;100487.91;5015960;28;1067;-51
2023/04/30 10:15:38;;;;;;;;;;;;;;;16.45;50.17;100479.81;5015955;28;1187;-47
2023/04/30 10:18:05;;;;;;;;;;;;;;;16.29;50.69;100488.09;5016939;28;1048;-46
2023/04/30 10:20:30;;;;;;;;;;;;;;;17.65;47.38;100478.88;5017450;28;1118;-50
2023/04/30 10:22:56;;;;;;;;;;;;;;;16.79;49.31;100479.97;5020053;28;1190;-50
2023/04/30 10:25:22;;;;;;;;;;;;;;;16.47;50.06;100472.16;5018836;28;1086;-49
2023/04/30 10:27:47;;;;;;;;;;;;;;;16.23;50.90;100476.31;5015602;28;1976;-51
2023/04/30 10:30:13;;;;;;;;;;;;;;;16.22;50.87;100484.84;5016695;28;1218;-50
2023/04/30 10:32:50;;;;;;;;;;;;;;;17.67;47.34;100480.22;5016595;28;1043;-45
2023/04/30 10:35:20;;;;;;;;;;;;;;;16.80;49.46;100483.53;5015852;28;1036;-48
2023/04/30 10:37:47;;;;;;;;;;;;;;;16.41;50.63;100474.91;5018268;28;1238;-50
2023/04/30 10:40:13;;;;;;;;;;;;;;;16.25;50.99;100478.78;5015191;28;1076;-47
2023/04/30 10:42:44;;;;;;;;;;;;;;;16.62;50.17;100483.06;5016626;28;1162;-53
2023/04/30 10:45:10;;;;;;;;;;;;;;;17.17;48.53;100479.50;5017010;28;1118;-51
2023/04/30 10:47:37;;;;;;;;;;;;;;;16.56;50.02;100479.53;5016188;28;1981;-51
2023/04/30 10:50:03;;;;;;;;;;;;;;;16.36;50.70;100480.41;5014503;28;1057;-50
2023/04/30 10:52:28;;;;;;;;;;;;;;;16.17;51.00;100471.13;5016298;28;1107;-55
2023/04/30 10:54:54;;;;;;;;;;;;;;;17.04;49.25;100468.06;5016860;28;1174;-53
2023/04/30 10:57:19;;;;;;;;;;;;;;;17.19;48.52;100474.53;5016587;28;1234;-52
2023/04/30 11:00:00;;;;;;;;;;;;;;;16.60;50.11;100477.03;5018370;28;1103;-54
2023/04/30 11:02:25;;;;;;;;;;;;;;;16.31;50.74;100480.41;5016496;28;1115;-50
2023/04/30 11:05:06;;;;;;;;;;;;;;;16.15;51.07;100484.31;5015137;28;1192;-51
2023/04/30 11:07:32;;;;;;;;;;;;;;;16.08;51.40;100473.63;5016599;28;1985;-50
2023/04/30 11:09:57;;;;;;;;;;;;;;;15.94;51.63;100473.38;5016451;28;1135;-53
2023/04/30 11:12:27;;;;;;;;;;;;;;;17.12;48.88;100477.59;5014765;28;1238;-49
2023/04/30 11:14:58;;;;;;;;;;;;;;;17.22;48.55;100482.22;5016677;28;1155;-55
2023/04/30 11:17:23;;;;;;;;;;;;;;;16.54;50.13;100470.72;5015985;28;1088;-55
2023/04/30 11:19:49;;;;;;;;;;;;;;;16.25;50.84;100460.41;5016037;28;1099;-48
2023/04/30 11:22:15;;;;;;;;;;;;;;;16.24;51.21;100467.00;5016310;28;1150;-51
2023/04/30 11:24:54;;;;;;;;;;;;;;;17.72;47.46;100466.41;5016283;28;941;-51
2023/04/30 11:27:26;;;;;;;;;;;;;;;16.81;49.61;100466.75;5014878;28;1979;-46
2023/04/30 11:29:52;;;;;;;;;;;;;;;16.41;50.87;100458.44;5019938;28;931;-53
2023/04/30 11:32:18;;;;;;;;;;;;;;;16.27;50.96;100464.78;5009881;28;1121;-54
2023/04/30 11:34:44;;;;;;;;;;;;;;;16.14;51.59;100467.00;5000549;28;1275;-56
2023/04/30 11:37:12;;;;;;;;;;;;;;;16.79;50.19;100470.88;5016772;28;970;-55
2023/04/30 11:39:37;;;;;;;;;;;;;;;17.18;48.85;100459.16;5025608;28;1135;-56
2023/04/30 11:42:03;;;;;;;;;;;;;;;16.60;50.15;100460.56;5032444;28;1334;-55
2023/04/30 11:44:28;;;;;;;;;;;;;;;16.27;51.07;100451.06;5000492;28;1187;-55
2023/04/30 11:46:54;;;;;;;;;;;;;;;16.71;50.43;100464.88;4999793;28;1989;-56
2023/04/30 11:49:19;;;;;;;;;;;;;;;17.43;48.12;100456.22;5032429;28;1105;-56
2023/04/30 11:51:48;;;;;;;;;;;;;;;16.68;50.30;100459.97;5007551;28;1079;-55
2023/04/30 11:54:14;;;;;;;;;;;;;;;16.41;51.04;100455.69;5010294;28;1143;-56
2023/04/30 11:56:44;;;;;;;;;;;;;;;16.28;51.14;100447.22;5015933;28;1302;-54
2023/04/30 11:59:09;;;;;;;;;;;;;;;16.13;51.65;100442.59;5018094;28;1067;-52
2023/04/30 12:01:35;;;;;;;;;;;;;;;16.32;51.33;100451.88;5024799;28;1045;-55
2023/04/30 12:04:02;;;;;;;;;;;;;;;17.46;48.31;100443.84;5044303;28;1504;-55
2023/04/30 12:06:28;;;;;;;;;;;;;;;16.62;50.34;100446.53;5006440;28;1906;-54
2023/04/30 12:08:54;;;;;;;;;;;;;;;16.32;51.24;100440.91;4999880;28;1341;-52
2023/04/30 12:11:21;;;;;;;;;;;;;;;16.22;51.38;100449.19;5000267;28;1353;-55
2023/04/30 12:13:56;;;;;;;;;;;;;;;17.21;48.95;100451.16;5015194;28;1313;-55
2023/04/30 12:16:27;;;;;;;;;;;;;;;16.92;49.37;100437.34;5019101;28;1158;-54
2023/04/30 12:18:52;;;;;;;;;;;;;;;16.49;50.62;100439.75;5006054;28;1247;-53
2023/04/30 12:21:18;;;;;;;;;;;;;;;16.29;51.18;100443.41;5019283;28;1214;-56
2023/04/30 12:23:44;;;;;;;;;;;;;;;16.30;51.19;100434.88;5021772;28;1074;-54
2023/04/30 12:26:09;;;;;;;;;;;;;;;17.59;47.95;100440.41;5023475;28;1906;-56
2023/04/30 12:28:35;;;;;;;;;;;;;;;16.76;50.16;100442.09;5011013;28;1099;-53
2023/04/30 12:31:01;;;;;;;;;;;;;;;16.45;50.83;100444.16;5031745;28;1153;-54
2023/04/30 12:33:29;;;;;;;;;;;;;;;16.30;51.42;100436.78;5017680;28;1163;-54
2023/04/30 12:35:55;;;;;;;;;;;;;;;17.39;48.64;100446.91;5011488;28;1211;-51
2023/04/30 12:38:22;;;;;;;;;;;;;;;16.97;49.38;100439.25;5018400;28;984;-53
2023/04/30 12:40:50;;;;;;;;;;;;;;;16.55;50.81;100435.84;5018345;28;1495;-55
2023/04/30 12:43:16;;;;;;;;;;;;;;;16.39;50.97;100438.66;5018628;28;1102;-56
2023/04/30 12:45:43;;;;;;;;;;;;;;;16.19;51.46;100431.34;5018383;28;1914;-53